sensor_id;sensor_type;location;lat;lon;timestamp;P1;durP1;ratioP1;P2;durP2;ratioP2
30966;SDS011;17649;51.836;8.330;2023-03-23T00:02:00;4.30;;;2.55;;
30966;SDS011;17649;51.836;8.330;2023-03-23T00:05:00;5.10;;;2.97;;
30966;SDS011;17649;51.836;8.330;2023-03-23T00:08:03;5.13;;;2.83;;
30966;SDS011;17649;51.836;8.330;2023-03-23T00:11:04;8.48;;;3.10;;
30966;SDS011;17649;51.836;8.330;2023-03-23T00:14:04;6.40;;;2.90;;
30966;SDS011;17649;51.836;8.330;2023-03-23T00:17:05;9.07;;;3.20;;
30966;SDS011;17649;51.836;8.330;2023-03-23T00:20:05;6.88;;;2.63;;
30966;SDS011;17649;51.836;8.330;2023-03-23T00:23:06;5.90;;;3.03;;
30966;SDS011;17649;51.836;8.330;2023-03-23T00:26:07;5.90;;;3.58;;
30966;SDS011;17649;51.836;8.330;2023-03-23T00:29:18;6.10;;;3.28;;
30966;SDS011;17649;51.836;8.330;2023-03-23T00:32:21;8.35;;;3.03;;
30966;SDS011;17649;51.836;8.330;2023-03-23T00:35:27;5.85;;;2.92;;
30966;SDS011;17649;51.836;8.330;2023-03-23T00:38:27;6.03;;;3.08;;
30966;SDS011;17649;51.836;8.330;2023-03-23T00:41:28;6.47;;;3.83;;
30966;SDS011;17649;51.836;8.330;2023-03-23T00:44:29;5.90;;;3.17;;
30966;SDS011;17649;51.836;8.330;2023-03-23T00:47:31;8.07;;;3.35;;
30966;SDS011;17649;51.836;8.330;2023-03-23T00:50:36;5.90;;;3.15;;
30966;SDS011;17649;51.836;8.330;2023-03-23T00:53:36;9.60;;;3.25;;
30966;SDS011;17649;51.836;8.330;2023-03-23T00:56:37;5.45;;;2.70;;
30966;SDS011;17649;51.836;8.330;2023-03-23T00:59:41;7.53;;;3.15;;
30966;SDS011;17649;51.836;8.330;2023-03-23T01:02:44;4.82;;;3.22;;
30966;SDS011;17649;51.836;8.330;2023-03-23T01:05:45;7.70;;;3.75;;
30966;SDS011;17649;51.836;8.330;2023-03-23T01:08:46;11.98;;;3.30;;
30966;SDS011;17649;51.836;8.330;2023-03-23T01:11:48;4.15;;;2.80;;
30966;SDS011;17649;51.836;8.330;2023-03-23T01:14:55;8.18;;;3.20;;
30966;SDS011;17649;51.836;8.330;2023-03-23T01:17:56;7.93;;;2.85;;
30966;SDS011;17649;51.836;8.330;2023-03-23T01:20:56;5.10;;;2.50;;
30966;SDS011;17649;51.836;8.330;2023-03-23T01:23:57;7.43;;;2.63;;
30966;SDS011;17649;51.836;8.330;2023-03-23T01:26:57;9.70;;;2.67;;
30966;SDS011;17649;51.836;8.330;2023-03-23T01:30:02;5.03;;;2.75;;
30966;SDS011;17649;51.836;8.330;2023-03-23T01:33:03;6.57;;;3.13;;
30966;SDS011;17649;51.836;8.330;2023-03-23T01:36:05;5.45;;;2.78;;
30966;SDS011;17649;51.836;8.330;2023-03-23T01:39:07;5.05;;;2.85;;
30966;SDS011;17649;51.836;8.330;2023-03-23T01:42:08;6.10;;;2.95;;
30966;SDS011;17649;51.836;8.330;2023-03-23T01:48:23;4.10;;;2.55;;
30966;SDS011;17649;51.836;8.330;2023-03-23T01:51:27;5.30;;;3.00;;
30966;SDS011;17649;51.836;8.330;2023-03-23T01:54:28;5.68;;;3.17;;
30966;SDS011;17649;51.836;8.330;2023-03-23T01:57:29;5.28;;;2.63;;
30966;SDS011;17649;51.836;8.330;2023-03-23T02:00:31;6.13;;;2.72;;
30966;SDS011;17649;51.836;8.330;2023-03-23T02:03:31;7.53;;;3.03;;
30966;SDS011;17649;51.836;8.330;2023-03-23T02:06:33;5.30;;;3.22;;
30966;SDS011;17649;51.836;8.330;2023-03-23T02:09:33;3.15;;;2.30;;
30966;SDS011;17649;51.836;8.330;2023-03-23T02:12:34;18.08;;;5.82;;
30966;SDS011;17649;51.836;8.330;2023-03-23T02:15:40;5.78;;;3.17;;
30966;SDS011;17649;51.836;8.330;2023-03-23T02:25:25;6.73;;;3.23;;
30966;SDS011;17649;51.836;8.330;2023-03-23T02:35:30;11.48;;;4.25;;
30966;SDS011;17649;51.836;8.330;2023-03-23T02:38:38;9.25;;;3.75;;
30966;SDS011;17649;51.836;8.330;2023-03-23T02:41:42;11.77;;;3.75;;
30966;SDS011;17649;51.836;8.330;2023-03-23T02:44:46;7.18;;;3.65;;
30966;SDS011;17649;51.836;8.330;2023-03-23T02:47:50;8.50;;;3.50;;
30966;SDS011;17649;51.836;8.330;2023-03-23T02:53:53;9.23;;;2.53;;
30966;SDS011;17649;51.836;8.330;2023-03-23T02:56:56;5.30;;;2.72;;
30966;SDS011;17649;51.836;8.330;2023-03-23T02:59:57;7.90;;;3.20;;
30966;SDS011;17649;51.836;8.330;2023-03-23T03:02:58;7.22;;;3.03;;
30966;SDS011;17649;51.836;8.330;2023-03-23T03:06:03;5.43;;;2.85;;
30966;SDS011;17649;51.836;8.330;2023-03-23T03:09:23;3.03;;;2.25;;
30966;SDS011;17649;51.836;8.330;2023-03-23T03:12:41;3.17;;;1.92;;
30966;SDS011;17649;51.836;8.330;2023-03-23T03:15:49;5.07;;;2.60;;
30966;SDS011;17649;51.836;8.330;2023-03-23T03:19:16;3.50;;;2.45;;
30966;SDS011;17649;51.836;8.330;2023-03-23T03:22:18;7.07;;;2.80;;
30966;SDS011;17649;51.836;8.330;2023-03-23T03:25:21;8.93;;;3.63;;
30966;SDS011;17649;51.836;8.330;2023-03-23T03:28:23;6.30;;;2.40;;
30966;SDS011;17649;51.836;8.330;2023-03-23T03:31:27;4.03;;;2.35;;
30966;SDS011;17649;51.836;8.330;2023-03-23T03:34:31;2.85;;;2.53;;
30966;SDS011;17649;51.836;8.330;2023-03-23T03:37:34;10.52;;;2.83;;
30966;SDS011;17649;51.836;8.330;2023-03-23T03:40:37;3.85;;;2.28;;
30966;SDS011;17649;51.836;8.330;2023-03-23T03:43:37;3.55;;;2.35;;
30966;SDS011;17649;51.836;8.330;2023-03-23T03:46:37;5.53;;;2.60;;
30966;SDS011;17649;51.836;8.330;2023-03-23T03:49:38;5.60;;;2.65;;
30966;SDS011;17649;51.836;8.330;2023-03-23T03:52:38;5.45;;;2.20;;
30966;SDS011;17649;51.836;8.330;2023-03-23T03:55:40;5.03;;;2.47;;
30966;SDS011;17649;51.836;8.330;2023-03-23T03:58:45;4.00;;;2.30;;
30966;SDS011;17649;51.836;8.330;2023-03-23T04:01:48;4.30;;;2.50;;
30966;SDS011;17649;51.836;8.330;2023-03-23T04:04:53;3.70;;;2.28;;
30966;SDS011;17649;51.836;8.330;2023-03-23T04:07:54;8.02;;;2.55;;
30966;SDS011;17649;51.836;8.330;2023-03-23T04:11:01;6.03;;;2.72;;
30966;SDS011;17649;51.836;8.330;2023-03-23T04:14:01;4.40;;;2.58;;
30966;SDS011;17649;51.836;8.330;2023-03-23T04:17:02;5.03;;;2.75;;
30966;SDS011;17649;51.836;8.330;2023-03-23T04:20:03;4.95;;;2.88;;
30966;SDS011;17649;51.836;8.330;2023-03-23T04:26:20;4.75;;;2.80;;
30966;SDS011;17649;51.836;8.330;2023-03-23T04:29:20;4.57;;;2.60;;
30966;SDS011;17649;51.836;8.330;2023-03-23T04:32:20;5.50;;;3.35;;
30966;SDS011;17649;51.836;8.330;2023-03-23T04:35:22;3.78;;;2.45;;
30966;SDS011;17649;51.836;8.330;2023-03-23T04:38:27;4.68;;;2.63;;
30966;SDS011;17649;51.836;8.330;2023-03-23T04:41:28;9.30;;;2.75;;
30966;SDS011;17649;51.836;8.330;2023-03-23T04:44:28;9.55;;;2.75;;
30966;SDS011;17649;51.836;8.330;2023-03-23T04:47:31;5.55;;;2.30;;
30966;SDS011;17649;51.836;8.330;2023-03-23T04:50:33;3.30;;;2.22;;
30966;SDS011;17649;51.836;8.330;2023-03-23T04:53:35;3.40;;;2.30;;
30966;SDS011;17649;51.836;8.330;2023-03-23T04:56:35;5.43;;;2.28;;
30966;SDS011;17649;51.836;8.330;2023-03-23T04:59:37;3.70;;;2.38;;
30966;SDS011;17649;51.836;8.330;2023-03-23T05:02:38;4.45;;;2.20;;
30966;SDS011;17649;51.836;8.330;2023-03-23T05:05:41;2.95;;;2.05;;
30966;SDS011;17649;51.836;8.330;2023-03-23T05:08:42;2.88;;;1.98;;
30966;SDS011;17649;51.836;8.330;2023-03-23T05:11:42;3.58;;;2.22;;
30966;SDS011;17649;51.836;8.330;2023-03-23T05:14:43;2.65;;;2.28;;
30966;SDS011;17649;51.836;8.330;2023-03-23T05:17:43;2.42;;;1.77;;
30966;SDS011;17649;51.836;8.330;2023-03-23T05:20:44;2.92;;;1.88;;
30966;SDS011;17649;51.836;8.330;2023-03-23T05:23:46;4.07;;;1.95;;
30966;SDS011;17649;51.836;8.330;2023-03-23T05:26:47;3.28;;;2.22;;
30966;SDS011;17649;51.836;8.330;2023-03-23T05:29:48;4.03;;;2.42;;
30966;SDS011;17649;51.836;8.330;2023-03-23T05:32:48;3.97;;;2.45;;
30966;SDS011;17649;51.836;8.330;2023-03-23T05:35:52;4.35;;;2.42;;
30966;SDS011;17649;51.836;8.330;2023-03-23T05:38:52;3.90;;;2.13;;
30966;SDS011;17649;51.836;8.330;2023-03-23T05:41:52;3.40;;;2.15;;
30966;SDS011;17649;51.836;8.330;2023-03-23T05:44:53;1.90;;;1.80;;
30966;SDS011;17649;51.836;8.330;2023-03-23T05:47:54;2.25;;;1.73;;
30966;SDS011;17649;51.836;8.330;2023-03-23T05:50:54;2.15;;;1.90;;
30966;SDS011;17649;51.836;8.330;2023-03-23T05:53:56;3.33;;;2.22;;
30966;SDS011;17649;51.836;8.330;2023-03-23T05:56:56;4.97;;;2.55;;
30966;SDS011;17649;51.836;8.330;2023-03-23T05:59:57;3.63;;;2.28;;
30966;SDS011;17649;51.836;8.330;2023-03-23T06:02:57;4.78;;;2.60;;
30966;SDS011;17649;51.836;8.330;2023-03-23T06:05:57;5.32;;;2.40;;
30966;SDS011;17649;51.836;8.330;2023-03-23T06:08:58;4.97;;;2.55;;
30966;SDS011;17649;51.836;8.330;2023-03-23T06:11:59;3.42;;;2.40;;
30966;SDS011;17649;51.836;8.330;2023-03-23T06:15:00;6.10;;;3.05;;
30966;SDS011;17649;51.836;8.330;2023-03-23T06:18:01;10.02;;;4.75;;
30966;SDS011;17649;51.836;8.330;2023-03-23T06:21:03;3.47;;;2.28;;
30966;SDS011;17649;51.836;8.330;2023-03-23T06:24:04;5.00;;;2.38;;
30966;SDS011;17649;51.836;8.330;2023-03-23T06:27:05;3.92;;;2.53;;
30966;SDS011;17649;51.836;8.330;2023-03-23T06:30:05;5.97;;;2.50;;
30966;SDS011;17649;51.836;8.330;2023-03-23T06:33:06;6.38;;;2.88;;
30966;SDS011;17649;51.836;8.330;2023-03-23T06:36:09;7.18;;;2.97;;
30966;SDS011;17649;51.836;8.330;2023-03-23T06:42:12;8.20;;;2.00;;
30966;SDS011;17649;51.836;8.330;2023-03-23T06:45:13;4.32;;;2.63;;
30966;SDS011;17649;51.836;8.330;2023-03-23T06:48:14;9.55;;;2.35;;
30966;SDS011;17649;51.836;8.330;2023-03-23T06:51:14;3.85;;;2.80;;
30966;SDS011;17649;51.836;8.330;2023-03-23T06:54:15;4.78;;;2.50;;
30966;SDS011;17649;51.836;8.330;2023-03-23T06:57:16;5.50;;;2.42;;
30966;SDS011;17649;51.836;8.330;2023-03-23T07:00:16;4.25;;;2.13;;
30966;SDS011;17649;51.836;8.330;2023-03-23T07:03:17;6.10;;;2.95;;
30966;SDS011;17649;51.836;8.330;2023-03-23T07:06:17;3.28;;;2.30;;
30966;SDS011;17649;51.836;8.330;2023-03-23T07:09:19;3.73;;;2.90;;
30966;SDS011;17649;51.836;8.330;2023-03-23T07:12:19;9.77;;;2.65;;
30966;SDS011;17649;51.836;8.330;2023-03-23T07:15:20;3.13;;;2.38;;
30966;SDS011;17649;51.836;8.330;2023-03-23T07:18:20;4.43;;;2.75;;
30966;SDS011;17649;51.836;8.330;2023-03-23T07:21:21;3.30;;;2.35;;
30966;SDS011;17649;51.836;8.330;2023-03-23T07:24:21;4.72;;;2.45;;
30966;SDS011;17649;51.836;8.330;2023-03-23T07:27:22;6.53;;;3.10;;
30966;SDS011;17649;51.836;8.330;2023-03-23T07:30:23;3.65;;;2.50;;
30966;SDS011;17649;51.836;8.330;2023-03-23T07:33:23;6.70;;;2.47;;
30966;SDS011;17649;51.836;8.330;2023-03-23T07:36:23;5.18;;;2.67;;
30966;SDS011;17649;51.836;8.330;2023-03-23T07:39:26;3.72;;;2.78;;
30966;SDS011;17649;51.836;8.330;2023-03-23T07:42:26;4.63;;;2.42;;
30966;SDS011;17649;51.836;8.330;2023-03-23T07:45:26;9.63;;;3.25;;
30966;SDS011;17649;51.836;8.330;2023-03-23T07:48:27;11.23;;;3.63;;
30966;SDS011;17649;51.836;8.330;2023-03-23T07:51:27;7.22;;;2.55;;
30966;SDS011;17649;51.836;8.330;2023-03-23T07:54:28;5.93;;;2.63;;
30966;SDS011;17649;51.836;8.330;2023-03-23T07:57:29;4.65;;;2.70;;
30966;SDS011;17649;51.836;8.330;2023-03-23T08:00:30;5.80;;;3.05;;
30966;SDS011;17649;51.836;8.330;2023-03-23T08:03:32;6.22;;;2.72;;
30966;SDS011;17649;51.836;8.330;2023-03-23T08:06:34;8.75;;;3.13;;
30966;SDS011;17649;51.836;8.330;2023-03-23T08:09:35;5.78;;;2.70;;
30966;SDS011;17649;51.836;8.330;2023-03-23T08:12:36;6.85;;;3.00;;
30966;SDS011;17649;51.836;8.330;2023-03-23T08:15:36;5.30;;;2.65;;
30966;SDS011;17649;51.836;8.330;2023-03-23T08:18:37;5.50;;;2.83;;
30966;SDS011;17649;51.836;8.330;2023-03-23T08:21:39;9.38;;;3.05;;
30966;SDS011;17649;51.836;8.330;2023-03-23T08:24:39;4.13;;;2.65;;
30966;SDS011;17649;51.836;8.330;2023-03-23T08:27:40;5.60;;;2.35;;
30966;SDS011;17649;51.836;8.330;2023-03-23T08:30:43;5.72;;;2.80;;
30966;SDS011;17649;51.836;8.330;2023-03-23T08:33:44;5.85;;;2.20;;
30966;SDS011;17649;51.836;8.330;2023-03-23T08:36:44;5.50;;;2.50;;
30966;SDS011;17649;51.836;8.330;2023-03-23T08:39:46;8.55;;;2.40;;
30966;SDS011;17649;51.836;8.330;2023-03-23T08:42:47;9.75;;;3.30;;
30966;SDS011;17649;51.836;8.330;2023-03-23T08:45:48;4.27;;;2.53;;
30966;SDS011;17649;51.836;8.330;2023-03-23T08:48:49;4.15;;;1.98;;
30966;SDS011;17649;51.836;8.330;2023-03-23T08:51:50;4.60;;;2.17;;
30966;SDS011;17649;51.836;8.330;2023-03-23T08:54:50;10.40;;;2.80;;
30966;SDS011;17649;51.836;8.330;2023-03-23T08:57:51;9.57;;;2.80;;
30966;SDS011;17649;51.836;8.330;2023-03-23T09:00:52;10.05;;;2.58;;
30966;SDS011;17649;51.836;8.330;2023-03-23T09:03:58;6.60;;;2.45;;
30966;SDS011;17649;51.836;8.330;2023-03-23T09:06:59;6.43;;;2.40;;
30966;SDS011;17649;51.836;8.330;2023-03-23T09:10:00;3.58;;;2.47;;
30966;SDS011;17649;51.836;8.330;2023-03-23T09:13:00;3.78;;;2.10;;
30966;SDS011;17649;51.836;8.330;2023-03-23T09:16:01;6.53;;;2.30;;
30966;SDS011;17649;51.836;8.330;2023-03-23T09:19:03;6.75;;;2.38;;
30966;SDS011;17649;51.836;8.330;2023-03-23T09:22:03;6.00;;;2.63;;
30966;SDS011;17649;51.836;8.330;2023-03-23T09:25:04;5.05;;;2.35;;
30966;SDS011;17649;51.836;8.330;2023-03-23T09:28:05;9.95;;;2.50;;
30966;SDS011;17649;51.836;8.330;2023-03-23T09:31:05;5.22;;;2.10;;
30966;SDS011;17649;51.836;8.330;2023-03-23T09:34:06;4.68;;;2.47;;
30966;SDS011;17649;51.836;8.330;2023-03-23T09:37:06;12.65;;;2.25;;
30966;SDS011;17649;51.836;8.330;2023-03-23T09:40:10;8.57;;;2.30;;
30966;SDS011;17649;51.836;8.330;2023-03-23T09:49:57;6.05;;;2.35;;
30966;SDS011;17649;51.836;8.330;2023-03-23T09:53:10;8.55;;;2.45;;
30966;SDS011;17649;51.836;8.330;2023-03-23T09:56:15;4.63;;;2.40;;
30966;SDS011;17649;51.836;8.330;2023-03-23T09:59:20;4.90;;;2.22;;
30966;SDS011;17649;51.836;8.330;2023-03-23T10:02:30;7.20;;;2.53;;
30966;SDS011;17649;51.836;8.330;2023-03-23T10:05:39;7.15;;;2.53;;
30966;SDS011;17649;51.836;8.330;2023-03-23T10:08:43;6.30;;;2.33;;
30966;SDS011;17649;51.836;8.330;2023-03-23T10:12:01;6.22;;;2.65;;
30966;SDS011;17649;51.836;8.330;2023-03-23T10:15:18;7.03;;;2.40;;
30966;SDS011;17649;51.836;8.330;2023-03-23T10:21:42;5.00;;;2.95;;
30966;SDS011;17649;51.836;8.330;2023-03-23T10:24:50;7.65;;;2.88;;
30966;SDS011;17649;51.836;8.330;2023-03-23T10:31:18;15.10;;;2.72;;
30966;SDS011;17649;51.836;8.330;2023-03-23T10:34:24;6.75;;;2.65;;
30966;SDS011;17649;51.836;8.330;2023-03-23T10:37:32;6.63;;;2.65;;
30966;SDS011;17649;51.836;8.330;2023-03-23T10:40:49;8.27;;;2.80;;
30966;SDS011;17649;51.836;8.330;2023-03-23T10:43:58;5.38;;;2.35;;
30966;SDS011;17649;51.836;8.330;2023-03-23T10:50:04;12.63;;;4.18;;
30966;SDS011;17649;51.836;8.330;2023-03-23T10:53:16;13.27;;;5.03;;
30966;SDS011;17649;51.836;8.330;2023-03-23T10:56:40;9.30;;;2.90;;
30966;SDS011;17649;51.836;8.330;2023-03-23T10:59:42;37.00;;;29.30;;
30966;SDS011;17649;51.836;8.330;2023-03-23T11:05:51;14.85;;;3.72;;
30966;SDS011;17649;51.836;8.330;2023-03-23T11:08:55;15.07;;;3.72;;
30966;SDS011;17649;51.836;8.330;2023-03-23T11:11:59;10.45;;;9.10;;
30966;SDS011;17649;51.836;8.330;2023-03-23T11:15:42;70.75;;;64.13;;
30966;SDS011;17649;51.836;8.330;2023-03-23T11:18:39;61.83;;;56.03;;
30966;SDS011;17649;51.836;8.330;2023-03-23T11:21:47;79.30;;;72.70;;
30966;SDS011;17649;51.836;8.330;2023-03-23T11:24:52;8.98;;;1.40;;
30966;SDS011;17649;51.836;8.330;2023-03-23T11:27:54;1.73;;;1.38;;
30966;SDS011;17649;51.836;8.330;2023-03-23T11:30:55;3.55;;;1.20;;
30966;SDS011;17649;51.836;8.330;2023-03-23T11:33:58;3.53;;;1.00;;
30966;SDS011;17649;51.836;8.330;2023-03-23T11:37:01;2.08;;;0.70;;
30966;SDS011;17649;51.836;8.330;2023-03-23T11:43:12;2.63;;;0.98;;
30966;SDS011;17649;51.836;8.330;2023-03-23T11:46:18;7.07;;;1.15;;
30966;SDS011;17649;51.836;8.330;2023-03-23T11:49:44;6.15;;;0.95;;
30966;SDS011;17649;51.836;8.330;2023-03-23T11:53:10;1.33;;;0.73;;
30966;SDS011;17649;51.836;8.330;2023-03-23T11:59:27;4.05;;;0.77;;
30966;SDS011;17649;51.836;8.330;2023-03-23T12:02:34;1.63;;;0.80;;
30966;SDS011;17649;51.836;8.330;2023-03-23T12:06:03;3.00;;;0.90;;
30966;SDS011;17649;51.836;8.330;2023-03-23T12:09:13;0.88;;;0.65;;
30966;SDS011;17649;51.836;8.330;2023-03-23T12:16:00;2.05;;;1.05;;
30966;SDS011;17649;51.836;8.330;2023-03-23T12:19:34;1.17;;;0.80;;
30966;SDS011;17649;51.836;8.330;2023-03-23T12:22:52;5.38;;;0.85;;
30966;SDS011;17649;51.836;8.330;2023-03-23T12:36:37;2.78;;;0.85;;
30966;SDS011;17649;51.836;8.330;2023-03-23T12:49:41;1.20;;;1.10;;
30966;SDS011;17649;51.836;8.330;2023-03-23T12:53:22;2.78;;;1.25;;
30966;SDS011;17649;51.836;8.330;2023-03-23T13:03:05;4.32;;;1.50;;
30966;SDS011;17649;51.836;8.330;2023-03-23T13:06:20;9.30;;;2.25;;
30966;SDS011;17649;51.836;8.330;2023-03-23T13:09:43;2.55;;;1.75;;
30966;SDS011;17649;51.836;8.330;2023-03-23T13:12:48;3.90;;;1.92;;
30966;SDS011;17649;51.836;8.330;2023-03-23T13:15:55;3.00;;;1.98;;
30966;SDS011;17649;51.836;8.330;2023-03-23T13:19:00;3.90;;;2.30;;
30966;SDS011;17649;51.836;8.330;2023-03-23T13:22:25;4.50;;;2.13;;
30966;SDS011;17649;51.836;8.330;2023-03-23T13:28:49;3.08;;;1.92;;
30966;SDS011;17649;51.836;8.330;2023-03-23T13:32:09;5.32;;;2.45;;
30966;SDS011;17649;51.836;8.330;2023-03-23T13:35:12;5.05;;;1.77;;
30966;SDS011;17649;51.836;8.330;2023-03-23T13:38:27;2.92;;;2.08;;
30966;SDS011;17649;51.836;8.330;2023-03-23T13:41:28;3.47;;;1.80;;
30966;SDS011;17649;51.836;8.330;2023-03-23T13:47:47;3.10;;;2.00;;
30966;SDS011;17649;51.836;8.330;2023-03-23T13:54:05;5.63;;;2.30;;
30966;SDS011;17649;51.836;8.330;2023-03-23T14:04:16;7.97;;;2.25;;
30966;SDS011;17649;51.836;8.330;2023-03-23T14:07:18;4.00;;;2.42;;
30966;SDS011;17649;51.836;8.330;2023-03-23T14:10:19;4.20;;;2.78;;
30966;SDS011;17649;51.836;8.330;2023-03-23T14:13:21;3.88;;;2.63;;
30966;SDS011;17649;51.836;8.330;2023-03-23T14:16:43;4.03;;;3.17;;
30966;SDS011;17649;51.836;8.330;2023-03-23T14:19:46;5.60;;;3.53;;
30966;SDS011;17649;51.836;8.330;2023-03-23T14:22:53;6.93;;;3.38;;
30966;SDS011;17649;51.836;8.330;2023-03-23T14:25:56;6.40;;;2.85;;
30966;SDS011;17649;51.836;8.330;2023-03-23T14:29:05;4.18;;;3.08;;
30966;SDS011;17649;51.836;8.330;2023-03-23T14:32:17;4.80;;;2.92;;
30966;SDS011;17649;51.836;8.330;2023-03-23T14:35:27;4.38;;;3.00;;
30966;SDS011;17649;51.836;8.330;2023-03-23T14:38:30;5.20;;;3.22;;
30966;SDS011;17649;51.836;8.330;2023-03-23T14:41:31;6.15;;;3.78;;
30966;SDS011;17649;51.836;8.330;2023-03-23T14:44:34;5.57;;;3.30;;
30966;SDS011;17649;51.836;8.330;2023-03-23T14:47:39;7.82;;;3.58;;
30966;SDS011;17649;51.836;8.330;2023-03-23T14:50:55;8.00;;;3.63;;
30966;SDS011;17649;51.836;8.330;2023-03-23T14:54:07;7.55;;;3.58;;
30966;SDS011;17649;51.836;8.330;2023-03-23T14:57:18;12.43;;;3.47;;
30966;SDS011;17649;51.836;8.330;2023-03-23T15:00:29;10.00;;;3.65;;
30966;SDS011;17649;51.836;8.330;2023-03-23T15:03:35;10.80;;;3.20;;
30966;SDS011;17649;51.836;8.330;2023-03-23T15:06:40;7.10;;;3.42;;
30966;SDS011;17649;51.836;8.330;2023-03-23T15:09:44;5.30;;;3.00;;
30966;SDS011;17649;51.836;8.330;2023-03-23T15:12:47;5.90;;;2.92;;
30966;SDS011;17649;51.836;8.330;2023-03-23T15:15:49;6.70;;;2.85;;
30966;SDS011;17649;51.836;8.330;2023-03-23T15:18:56;7.97;;;2.90;;
30966;SDS011;17649;51.836;8.330;2023-03-23T15:22:06;8.73;;;2.60;;
30966;SDS011;17649;51.836;8.330;2023-03-23T15:28:21;5.45;;;2.67;;
30966;SDS011;17649;51.836;8.330;2023-03-23T15:31:28;8.65;;;3.42;;
30966;SDS011;17649;51.836;8.330;2023-03-23T15:34:32;6.47;;;2.70;;
30966;SDS011;17649;51.836;8.330;2023-03-23T15:37:42;4.72;;;2.55;;
30966;SDS011;17649;51.836;8.330;2023-03-23T15:40:44;4.85;;;3.40;;
30966;SDS011;17649;51.836;8.330;2023-03-23T15:43:52;7.07;;;3.55;;
30966;SDS011;17649;51.836;8.330;2023-03-23T15:47:04;8.30;;;3.38;;
30966;SDS011;17649;51.836;8.330;2023-03-23T15:53:18;9.57;;;4.00;;
30966;SDS011;17649;51.836;8.330;2023-03-23T15:56:32;9.73;;;4.10;;
30966;SDS011;17649;51.836;8.330;2023-03-23T15:59:32;9.57;;;4.45;;
30966;SDS011;17649;51.836;8.330;2023-03-23T16:02:33;7.32;;;4.47;;
30966;SDS011;17649;51.836;8.330;2023-03-23T16:05:35;9.38;;;4.75;;
30966;SDS011;17649;51.836;8.330;2023-03-23T16:08:35;9.02;;;5.25;;
30966;SDS011;17649;51.836;8.330;2023-03-23T16:11:40;9.40;;;5.20;;
30966;SDS011;17649;51.836;8.330;2023-03-23T16:14:41;10.75;;;4.47;;
30966;SDS011;17649;51.836;8.330;2023-03-23T16:17:42;8.98;;;4.80;;
30966;SDS011;17649;51.836;8.330;2023-03-23T16:20:42;7.03;;;4.03;;
30966;SDS011;17649;51.836;8.330;2023-03-23T16:23:43;8.07;;;4.45;;
30966;SDS011;17649;51.836;8.330;2023-03-23T16:26:45;7.13;;;4.50;;
30966;SDS011;17649;51.836;8.330;2023-03-23T16:29:45;9.75;;;4.63;;
30966;SDS011;17649;51.836;8.330;2023-03-23T16:32:46;8.48;;;4.43;;
30966;SDS011;17649;51.836;8.330;2023-03-23T16:35:46;5.90;;;4.00;;
30966;SDS011;17649;51.836;8.330;2023-03-23T16:38:47;8.63;;;3.90;;
30966;SDS011;17649;51.836;8.330;2023-03-23T16:41:47;9.07;;;4.35;;
30966;SDS011;17649;51.836;8.330;2023-03-23T16:44:48;5.10;;;3.85;;
30966;SDS011;17649;51.836;8.330;2023-03-23T16:47:54;6.25;;;4.10;;
30966;SDS011;17649;51.836;8.330;2023-03-23T16:51:00;11.13;;;4.70;;
30966;SDS011;17649;51.836;8.330;2023-03-23T16:57:27;6.03;;;4.32;;
30966;SDS011;17649;51.836;8.330;2023-03-23T17:00:27;7.72;;;4.30;;
30966;SDS011;17649;51.836;8.330;2023-03-23T17:03:28;5.88;;;4.55;;
30966;SDS011;17649;51.836;8.330;2023-03-23T17:06:29;9.90;;;4.60;;
30966;SDS011;17649;51.836;8.330;2023-03-23T17:09:30;12.98;;;4.78;;
30966;SDS011;17649;51.836;8.330;2023-03-23T17:12:33;8.02;;;4.43;;
30966;SDS011;17649;51.836;8.330;2023-03-23T17:15:38;10.80;;;4.05;;
30966;SDS011;17649;51.836;8.330;2023-03-23T17:18:40;9.00;;;3.45;;
30966;SDS011;17649;51.836;8.330;2023-03-23T17:21:46;10.63;;;3.45;;
30966;SDS011;17649;51.836;8.330;2023-03-23T17:28:52;6.25;;;3.78;;
30966;SDS011;17649;51.836;8.330;2023-03-23T17:32:17;6.63;;;3.38;;
30966;SDS011;17649;51.836;8.330;2023-03-23T17:35:49;13.95;;;5.15;;
30966;SDS011;17649;51.836;8.330;2023-03-23T17:39:05;6.68;;;4.13;;
30966;SDS011;17649;51.836;8.330;2023-03-23T17:42:09;10.05;;;3.83;;
30966;SDS011;17649;51.836;8.330;2023-03-23T17:45:12;14.82;;;3.95;;
30966;SDS011;17649;51.836;8.330;2023-03-23T17:48:13;8.45;;;3.78;;
30966;SDS011;17649;51.836;8.330;2023-03-23T17:51:13;9.20;;;5.90;;
30966;SDS011;17649;51.836;8.330;2023-03-23T17:54:21;7.25;;;3.63;;
30966;SDS011;17649;51.836;8.330;2023-03-23T17:57:35;9.55;;;5.50;;
30966;SDS011;17649;51.836;8.330;2023-03-23T18:00:36;8.33;;;3.67;;
30966;SDS011;17649;51.836;8.330;2023-03-23T18:03:51;8.90;;;3.50;;
30966;SDS011;17649;51.836;8.330;2023-03-23T18:07:05;8.68;;;3.17;;
30966;SDS011;17649;51.836;8.330;2023-03-23T18:10:07;10.40;;;3.80;;
30966;SDS011;17649;51.836;8.330;2023-03-23T18:13:11;7.88;;;3.75;;
30966;SDS011;17649;51.836;8.330;2023-03-23T18:16:12;6.20;;;3.20;;
30966;SDS011;17649;51.836;8.330;2023-03-23T18:19:13;10.60;;;3.10;;
30966;SDS011;17649;51.836;8.330;2023-03-23T18:22:13;7.10;;;3.65;;
30966;SDS011;17649;51.836;8.330;2023-03-23T18:25:14;8.80;;;3.22;;
30966;SDS011;17649;51.836;8.330;2023-03-23T18:28:14;7.25;;;4.15;;
30966;SDS011;17649;51.836;8.330;2023-03-23T18:31:16;8.30;;;4.20;;
30966;SDS011;17649;51.836;8.330;2023-03-23T18:34:25;9.45;;;4.00;;
30966;SDS011;17649;51.836;8.330;2023-03-23T18:37:27;7.93;;;3.80;;
30966;SDS011;17649;51.836;8.330;2023-03-23T18:40:32;7.72;;;4.03;;
30966;SDS011;17649;51.836;8.330;2023-03-23T18:43:32;11.43;;;4.85;;
30966;SDS011;17649;51.836;8.330;2023-03-23T18:46:32;10.55;;;5.95;;
30966;SDS011;17649;51.836;8.330;2023-03-23T18:49:33;10.05;;;6.80;;
30966;SDS011;17649;51.836;8.330;2023-03-23T18:52:33;10.40;;;5.88;;
30966;SDS011;17649;51.836;8.330;2023-03-23T18:55:34;10.23;;;5.90;;
30966;SDS011;17649;51.836;8.330;2023-03-23T18:58:35;10.05;;;6.15;;
30966;SDS011;17649;51.836;8.330;2023-03-23T19:01:48;11.82;;;5.28;;
30966;SDS011;17649;51.836;8.330;2023-03-23T19:04:50;12.32;;;7.38;;
30966;SDS011;17649;51.836;8.330;2023-03-23T19:07:51;14.20;;;8.88;;
30966;SDS011;17649;51.836;8.330;2023-03-23T19:10:56;13.18;;;7.88;;
30966;SDS011;17649;51.836;8.330;2023-03-23T19:13:58;11.13;;;7.38;;
30966;SDS011;17649;51.836;8.330;2023-03-23T19:16:59;14.77;;;7.65;;
30966;SDS011;17649;51.836;8.330;2023-03-23T19:19:59;14.02;;;7.25;;
30966;SDS011;17649;51.836;8.330;2023-03-23T19:23:00;11.35;;;7.10;;
30966;SDS011;17649;51.836;8.330;2023-03-23T19:26:00;14.00;;;8.45;;
30966;SDS011;17649;51.836;8.330;2023-03-23T19:29:01;20.10;;;11.07;;
30966;SDS011;17649;51.836;8.330;2023-03-23T19:32:04;13.95;;;6.90;;
30966;SDS011;17649;51.836;8.330;2023-03-23T19:35:05;14.23;;;8.15;;
30966;SDS011;17649;51.836;8.330;2023-03-23T19:38:06;14.65;;;8.48;;
30966;SDS011;17649;51.836;8.330;2023-03-23T19:41:07;11.15;;;6.30;;
30966;SDS011;17649;51.836;8.330;2023-03-23T19:44:07;11.20;;;6.47;;
30966;SDS011;17649;51.836;8.330;2023-03-23T19:47:08;14.70;;;6.57;;
30966;SDS011;17649;51.836;8.330;2023-03-23T19:50:08;10.77;;;5.95;;
30966;SDS011;17649;51.836;8.330;2023-03-23T19:53:09;12.95;;;5.68;;
30966;SDS011;17649;51.836;8.330;2023-03-23T19:56:11;11.85;;;6.28;;
30966;SDS011;17649;51.836;8.330;2023-03-23T19:59:13;12.05;;;7.07;;
30966;SDS011;17649;51.836;8.330;2023-03-23T20:02:15;13.65;;;6.75;;
30966;SDS011;17649;51.836;8.330;2023-03-23T20:05:16;12.75;;;5.65;;
30966;SDS011;17649;51.836;8.330;2023-03-23T20:08:17;13.02;;;5.32;;
30966;SDS011;17649;51.836;8.330;2023-03-23T20:11:18;7.95;;;4.80;;
30966;SDS011;17649;51.836;8.330;2023-03-23T20:14:18;16.13;;;5.57;;
30966;SDS011;17649;51.836;8.330;2023-03-23T20:17:19;8.88;;;6.13;;
30966;SDS011;17649;51.836;8.330;2023-03-23T20:20:19;10.57;;;5.22;;